Time;durP1;ratioP1;P1;durP2;ratioP2;P2;SDS_P1;SDS_P2;PMS_P1;PMS_P2;Temp;Humidity;BMP_temperature;BMP_pressure;BME280_temperature;BME280_humidity;BME280_pressure;Samples;Min_cycle;Max_cycle;Signal;HPM_P1;HPM_P2
2021/12/06 00:00:41;;;;;;;8.82;8.23;;;6.00;53.00;;;;;;21258;6609;275817;-84
2021/12/06 00:03:07;;;;;;;9.20;8.50;;;6.30;52.10;;;;;;21261;6609;300199;-83
2021/12/06 00:05:32;;;;;;;8.03;7.43;;;6.50;51.50;;;;;;21481;6609;66085;-84
2021/12/06 00:07:58;;;;;;;9.50;8.67;;;6.30;51.70;;;;;;21495;6609;87926;-83
2021/12/06 00:10:23;;;;;;;19.93;15.37;;;6.00;52.40;;;;;;21279;6609;299838;-83
2021/12/06 00:12:49;;;;;;;12.80;11.47;;;6.00;52.40;;;;;;21267;6609;299271;-83
2021/12/06 00:15:15;;;;;;;10.88;9.88;;;6.20;52.00;;;;;;21266;6609;300215;-83
2021/12/06 00:17:40;;;;;;;8.10;7.45;;;6.40;51.50;;;;;;21487;6609;66459;-84
2021/12/06 00:20:07;;;;;;;7.60;7.00;;;5.90;52.30;;;;;;21489;6609;66903;-84
2021/12/06 00:22:33;;;;;;;8.10;7.30;;;5.60;53.00;;;;;;21473;6609;67011;-84
2021/12/06 00:24:59;;;;;;;8.30;7.60;;;5.60;53.00;;;;;;21264;6609;292749;-84
2021/12/06 00:27:24;;;;;;;7.50;7.00;;;5.70;53.00;;;;;;21493;6609;67096;-86
2021/12/06 00:29:50;;;;;;;7.10;6.60;;;5.70;53.00;;;;;;21491;6609;66237;-84
2021/12/06 00:32:16;;;;;;;7.03;6.43;;;5.30;53.90;;;;;;21494;6609;66127;-84
2021/12/06 00:34:42;;;;;;;8.10;7.50;;;5.30;53.80;;;;;;21270;6609;300229;-83
2021/12/06 00:39:49;;;;;;;9.00;8.30;;;5.50;54.10;;;;;;21273;6607;299432;-84
2021/12/06 00:42:15;;;;;;;8.90;8.20;;;5.70;53.60;;;;;;21331;6608;327766;-85
2021/12/06 00:44:40;;;;;;;9.10;8.40;;;6.00;52.60;;;;;;21302;6609;299895;-85
2021/12/06 00:47:06;;;;;;;7.12;6.62;;;6.20;51.70;;;;;;21483;6609;68492;-85
2021/12/06 00:49:32;;;;;;;7.43;6.83;;;6.00;51.90;;;;;;21490;6609;66980;-85
2021/12/06 00:51:57;;;;;;;8.75;8.05;;;5.70;52.50;;;;;;21260;6609;331322;-85
2021/12/06 00:54:23;;;;;;;7.83;7.20;;;5.70;52.90;;;;;;21429;6609;66897;-84
2021/12/06 00:56:48;;;;;;;7.72;6.97;;;5.60;52.90;;;;;;21493;6609;66508;-85
2021/12/06 00:59:14;;;;;;;7.67;6.97;;;5.30;53.40;;;;;;21452;6609;66051;-85
2021/12/06 01:01:40;;;;;;;8.40;7.60;;;5.20;54.20;;;;;;21270;6609;292476;-87
2021/12/06 01:04:05;;;;;;;8.07;7.27;;;5.20;54.20;;;;;;21482;6609;70217;-85
2021/12/06 01:06:31;;;;;;;7.53;6.93;;;5.20;54.00;;;;;;21490;6609;66673;-85
2021/12/06 01:08:57;;;;;;;8.27;7.47;;;5.10;54.50;;;;;;21491;6609;66456;-85
2021/12/06 01:11:22;;;;;;;7.40;6.70;;;4.90;54.90;;;;;;21489;6609;66092;-85
2021/12/06 01:13:48;;;;;;;9.03;8.27;;;4.80;55.30;;;;;;21271;6609;328254;-84
2021/12/06 01:16:13;;;;;;;8.17;7.37;;;4.90;55.50;;;;;;21495;6609;68977;-85
2021/12/06 01:18:40;;;;;;;8.47;7.67;;;4.90;55.50;;;;;;21495;6609;66744;-85
2021/12/06 01:21:42;;;;;;;9.20;8.40;;;4.80;55.40;;;;;;21271;6609;304127;-85
2021/12/06 01:23:56;;;;;;;9.10;8.27;;;5.00;55.50;;;;;;21428;6609;66280;-85
2021/12/06 01:39:18;;;;;;;11.93;10.90;;;5.30;54.90;;;;;;21262;6609;303780;-84
2021/12/06 01:41:52;;;;;;;12.03;10.93;;;5.60;54.00;;;;;;21263;6609;271307;-84
2021/12/06 01:44:30;;;;;;;12.20;11.20;;;5.60;53.70;;;;;;21291;6609;287480;-84
2021/12/06 01:46:56;;;;;;;12.77;11.77;;;5.80;53.30;;;;;;21291;6609;304018;-88
2021/12/06 01:49:21;;;;;;;10.82;9.82;;;6.00;52.80;;;;;;21463;6609;70631;-84
2021/12/06 01:51:47;;;;;;;11.93;10.95;;;5.70;52.90;;;;;;21264;6607;300208;-84
2021/12/06 01:54:12;;;;;;;11.40;10.40;;;5.70;53.30;;;;;;21475;6609;67325;-84
2021/12/06 01:56:38;;;;;;;12.63;11.52;;;5.60;53.50;;;;;;21267;6609;272507;-86
2021/12/06 01:59:03;;;;;;;12.68;11.57;;;5.60;53.70;;;;;;21305;6609;300054;-85
2021/12/06 02:01:29;;;;;;;13.13;11.98;;;5.70;53.10;;;;;;21289;6609;327859;-85
2021/12/06 02:03:54;;;;;;;12.82;11.52;;;6.00;52.60;;;;;;21276;6609;275259;-85
2021/12/06 02:06:20;;;;;;;14.83;10.70;;;6.10;52.20;;;;;;21495;6609;66274;-84
2021/12/06 02:08:46;;;;;;;10.90;10.00;;;5.50;53.10;;;;;;21496;6609;67030;-85
2021/12/06 02:11:12;;;;;;;10.03;9.23;;;5.50;53.10;;;;;;21521;6609;66081;-86
2021/12/06 02:13:47;;;;;;;10.82;9.88;;;5.30;54.60;;;;;;21270;6609;271358;-85
2021/12/06 02:16:05;;;;;;;10.90;9.90;;;5.30;54.60;;;;;;21475;6609;66011;-84
2021/12/06 02:21:12;;;;;;;9.93;8.77;;;5.00;55.80;;;;;;21487;6609;67010;-85
2021/12/06 02:23:37;;;;;;;11.97;10.73;;;5.00;55.40;;;;;;21237;6609;271354;-84
2021/12/06 02:26:03;;;;;;;12.00;11.10;;;5.20;55.10;;;;;;21263;6609;299904;-84
2021/12/06 02:28:29;;;;;;;10.87;9.87;;;5.50;54.10;;;;;;21491;6609;66550;-84
2021/12/06 02:30:54;;;;;;;11.85;10.75;;;5.50;54.00;;;;;;21266;6609;324148;-84
2021/12/06 02:33:21;;;;;;;11.80;10.70;;;5.60;53.90;;;;;;21269;6609;319487;-84
2021/12/06 02:35:45;;;;;;;12.10;11.10;;;5.80;53.30;;;;;;21261;6609;272724;-84
2021/12/06 02:38:11;;;;;;;10.30;9.50;;;6.00;52.70;;;;;;21489;6609;70339;-85
2021/12/06 02:40:36;;;;;;;10.82;9.93;;;5.80;52.70;;;;;;21490;6609;66363;-85
2021/12/06 02:43:02;;;;;;;10.77;9.80;;;5.50;53.40;;;;;;21478;6609;65986;-85
2021/12/06 02:45:27;;;;;;;12.23;11.15;;;5.30;54.20;;;;;;21249;6609;328811;-84
2021/12/06 02:47:53;;;;;;;11.47;10.37;;;5.40;54.30;;;;;;21498;6609;66969;-85
2021/12/06 02:50:19;;;;;;;11.07;10.18;;;5.30;54.10;;;;;;21279;6609;300114;-86
2021/12/06 02:52:44;;;;;;;12.20;11.10;;;5.40;54.00;;;;;;21252;6609;300350;-84
2021/12/06 02:55:28;;;;;;;12.03;11.03;;;5.70;53.20;;;;;;21276;6609;307692;-85
2021/12/06 02:57:38;;;;;;;9.85;9.05;;;5.90;52.60;;;;;;21428;6609;87795;-85
2021/12/06 03:00:01;;;;;;;9.93;9.03;;;5.80;52.70;;;;;;21488;6609;66479;-85
2021/12/06 03:02:30;;;;;;;11.32;10.43;;;5.50;53.40;;;;;;21251;6607;317612;-85
2021/12/06 03:04:52;;;;;;;11.00;10.00;;;5.60;53.70;;;;;;21480;6608;66096;-85
2021/12/06 03:07:21;;;;;;;11.80;10.70;;;5.50;53.60;;;;;;21268;6609;329301;-85
2021/12/06 03:09:43;;;;;;;11.20;10.30;;;5.50;53.50;;;;;;21255;6609;284997;-85
2021/12/06 03:12:09;;;;;;;10.60;9.70;;;5.70;53.00;;;;;;21482;6609;77026;-87
2021/12/06 03:14:37;;;;;;;10.80;9.80;;;5.60;53.00;;;;;;21474;6609;66319;-84
2021/12/06 03:17:03;;;;;;;10.03;9.03;;;5.30;53.50;;;;;;21539;6609;70286;-85
2021/12/06 03:19:29;;;;;;;11.70;10.70;;;5.10;54.90;;;;;;21267;6609;299092;-85
2021/12/06 03:21:55;;;;;;;13.73;12.47;;;5.20;54.40;;;;;;21272;6609;275222;-85
2021/12/06 03:24:20;;;;;;;17.20;15.32;;;5.50;54.00;;;;;;21486;6609;66483;-85
2021/12/06 03:26:45;;;;;;;13.60;12.10;;;5.40;53.70;;;;;;21484;6609;67060;-84
2021/12/06 03:29:11;;;;;;;14.48;13.07;;;5.20;54.10;;;;;;21263;6609;299768;-85
2021/12/06 03:31:37;;;;;;;11.53;10.53;;;5.20;54.30;;;;;;21506;6609;66502;-85
2021/12/06 03:34:02;;;;;;;10.20;9.17;;;5.20;54.30;;;;;;21517;6609;66528;-87
2021/12/06 03:36:28;;;;;;;9.13;8.33;;;5.00;54.70;;;;;;21494;6609;66952;-85
2021/12/06 03:38:54;;;;;;;10.00;9.10;;;4.60;55.70;;;;;;21483;6609;66952;-85
2021/12/06 03:41:20;;;;;;;11.20;10.23;;;4.60;55.60;;;;;;21272;6609;275460;-85
2021/12/06 03:43:46;;;;;;;11.90;10.85;;;5.10;55.10;;;;;;21258;6609;299498;-85
2021/12/06 03:46:11;;;;;;;10.80;9.70;;;5.10;55.10;;;;;;21490;6609;67222;-85
2021/12/06 03:48:37;;;;;;;9.65;8.85;;;5.20;54.90;;;;;;21479;6609;66542;-84
2021/12/06 03:51:03;;;;;;;11.80;10.70;;;4.90;55.20;;;;;;21265;6609;327561;-85
2021/12/06 03:53:28;;;;;;;11.70;10.70;;;5.10;55.70;;;;;;21310;6609;300305;-88
2021/12/06 03:55:54;;;;;;;11.30;10.30;;;5.40;54.70;;;;;;21262;6609;275451;-84
2021/12/06 03:58:20;;;;;;;9.95;9.25;;;5.60;53.80;;;;;;21266;6609;299545;-84
2021/12/06 04:00:45;;;;;;;10.03;9.23;;;5.80;53.40;;;;;;21506;6609;66511;-85
2021/12/06 04:03:10;;;;;;;9.65;8.88;;;5.70;53.50;;;;;;21265;6609;304049;-84
2021/12/06 04:05:36;;;;;;;10.20;9.50;;;5.70;53.90;;;;;;21266;6609;328844;-84
2021/12/06 04:08:02;;;;;;;10.23;9.43;;;5.80;53.10;;;;;;21267;6609;306633;-84
2021/12/06 04:10:27;;;;;;;10.83;10.03;;;6.00;52.50;;;;;;21267;6609;270938;-84
2021/12/06 04:12:55;;;;;;;10.05;9.20;;;6.10;51.90;;;;;;21485;6607;66960;-84
2021/12/06 04:15:19;;;;;;;9.97;9.27;;;5.80;52.70;;;;;;21259;6608;325621;-84
2021/12/06 04:17:44;;;;;;;10.20;9.40;;;5.80;52.60;;;;;;21274;6609;275327;-85
2021/12/06 04:20:11;;;;;;;10.60;9.80;;;6.10;52.10;;;;;;21267;6609;299889;-85
2021/12/06 04:22:37;;;;;;;9.40;8.60;;;6.10;52.10;;;;;;21486;6609;66860;-84
2021/12/06 04:25:02;;;;;;;9.40;8.50;;;5.80;52.20;;;;;;21487;6609;66624;-84
2021/12/06 04:27:28;;;;;;;10.13;9.38;;;5.50;53.00;;;;;;21264;6609;298300;-84
2021/12/06 04:29:53;;;;;;;9.17;8.37;;;5.50;53.50;;;;;;21494;6609;68793;-84
2021/12/06 04:32:19;;;;;;;10.27;9.38;;;5.40;53.50;;;;;;21310;6609;298734;-84
2021/12/06 04:34:45;;;;;;;9.52;8.82;;;5.50;53.80;;;;;;21533;6609;67424;-84
2021/12/06 04:37:11;;;;;;;10.30;9.43;;;5.50;53.70;;;;;;21270;6609;305105;-85
2021/12/06 04:39:36;;;;;;;10.13;9.33;;;5.50;53.70;;;;;;21272;6609;303530;-85
2021/12/06 04:42:02;;;;;;;9.25;8.45;;;5.70;53.10;;;;;;21483;6609;66557;-84
2021/12/06 04:44:28;;;;;;;9.20;8.43;;;5.60;53.10;;;;;;21434;6609;66949;-84
2021/12/06 04:46:53;;;;;;;8.63;8.00;;;5.30;53.60;;;;;;21485;6609;66698;-85
2021/12/06 04:49:19;;;;;;;9.93;9.23;;;5.10;54.30;;;;;;21288;6609;330646;-85
2021/12/06 04:51:44;;;;;;;10.18;9.38;;;5.20;54.40;;;;;;21266;6609;302585;-84
2021/12/06 04:54:10;;;;;;;10.03;9.33;;;5.50;53.70;;;;;;21260;6609;299589;-85
2021/12/06 04:56:38;;;;;;;9.82;9.13;;;5.80;52.90;;;;;;21278;6609;299570;-85
2021/12/06 04:59:07;;;;;;;9.40;8.73;;;6.00;52.40;;;;;;21261;6609;330984;-85
2021/12/06 05:01:33;;;;;;;10.57;9.67;;;6.10;51.90;;;;;;21228;6609;318203;-84
2021/12/06 05:03:58;;;;;;;9.83;8.87;;;6.20;51.60;;;;;;21487;6609;70252;-84
2021/12/06 05:06:24;;;;;;;9.32;8.52;;;5.90;51.80;;;;;;21476;6609;89147;-84
2021/12/06 05:08:50;;;;;;;8.93;8.10;;;5.30;53.50;;;;;;21478;6609;66619;-84
2021/12/06 05:11:15;;;;;;;9.20;8.43;;;5.30;53.40;;;;;;21477;6609;66754;-84
2021/12/06 05:13:41;;;;;;;8.93;8.20;;;5.10;54.10;;;;;;21483;6609;67032;-83
2021/12/06 05:16:07;;;;;;;8.90;8.10;;;4.90;54.60;;;;;;21481;6609;66473;-84
2021/12/06 05:18:32;;;;;;;9.83;8.83;;;4.80;55.00;;;;;;21495;6609;70646;-84
2021/12/06 05:20:58;;;;;;;8.80;8.10;;;4.60;55.30;;;;;;21499;6609;68828;-84
2021/12/06 05:23:23;;;;;;;8.40;7.73;;;4.60;55.70;;;;;;21495;6609;66599;-84
2021/12/06 05:25:49;;;;;;;8.83;8.17;;;4.50;55.90;;;;;;21499;6607;66980;-84
2021/12/06 05:28:17;;;;;;;10.80;10.00;;;4.70;56.20;;;;;;21271;6608;305114;-84
2021/12/06 05:30:42;;;;;;;9.50;8.70;;;4.70;56.20;;;;;;21479;6609;65990;-85
2021/12/06 05:33:07;;;;;;;9.27;8.47;;;4.80;55.90;;;;;;21488;6609;70990;-83
2021/12/06 05:35:32;;;;;;;11.32;10.43;;;4.70;56.10;;;;;;21265;6609;300949;-85
2021/12/06 05:37:57;;;;;;;10.23;9.43;;;4.90;56.20;;;;;;21290;6609;299548;-85
2021/12/06 05:40:23;;;;;;;10.40;9.67;;;5.30;55.50;;;;;;21298;6609;328418;-88
2021/12/06 05:42:48;;;;;;;9.70;9.00;;;5.60;54.60;;;;;;21521;6609;66566;-85
2021/12/06 05:45:14;;;;;;;10.13;9.13;;;5.60;54.30;;;;;;21518;6609;92494;-85
2021/12/06 05:47:39;;;;;;;8.73;8.03;;;5.30;54.70;;;;;;21523;6609;66087;-85
2021/12/06 05:50:05;;;;;;;10.77;9.90;;;5.10;55.30;;;;;;21338;6609;329036;-85
2021/12/06 05:52:31;;;;;;;9.63;8.93;;;5.20;55.50;;;;;;21496;6609;66024;-85
2021/12/06 05:54:56;;;;;;;9.23;8.43;;;5.20;55.30;;;;;;21511;6609;68738;-86
2021/12/06 05:57:22;;;;;;;8.67;8.00;;;5.10;55.60;;;;;;21515;6609;66417;-85
2021/12/06 05:59:47;;;;;;;10.88;10.07;;;4.90;56.70;;;;;;21333;6609;298384;-88
2021/12/06 06:02:14;;;;;;;9.77;9.00;;;5.10;56.20;;;;;;21502;6609;66001;-85
2021/12/06 06:04:39;;;;;;;9.30;8.55;;;5.30;56.10;;;;;;21530;6609;66486;-85
2021/12/06 06:07:04;;;;;;;11.20;10.30;;;5.10;56.20;;;;;;21289;6609;332366;-85
2021/12/06 06:09:30;;;;;;;11.27;10.48;;;5.30;56.00;;;;;;21283;6609;300322;-85
2021/12/06 06:11:55;;;;;;;11.40;10.60;;;5.70;55.10;;;;;;21283;6609;299482;-85
2021/12/06 06:14:21;;;;;;;9.80;9.00;;;6.00;54.30;;;;;;21507;6609;66084;-85
2021/12/06 06:16:52;;;;;;;11.12;10.20;;;5.90;54.10;;;;;;21288;6609;299349;-85
2021/12/06 06:19:16;;;;;;;10.30;9.50;;;5.90;54.10;;;;;;21508;6609;66555;-83
2021/12/06 06:21:41;;;;;;;10.37;9.47;;;5.90;54.10;;;;;;21503;6609;66121;-84
2021/12/06 06:24:07;;;;;;;25.50;18.43;;;5.70;54.70;;;;;;21517;6609;76891;-84
2021/12/06 06:26:35;;;;;;;8.47;7.67;;;5.50;55.20;;;;;;21537;6609;65998;-84
2021/12/06 06:29:00;;;;;;;9.70;8.85;;;5.30;55.50;;;;;;21325;6609;327338;-83
2021/12/06 06:31:26;;;;;;;11.82;10.88;;;5.40;55.20;;;;;;21326;6609;270036;-86
2021/12/06 06:33:51;;;;;;;10.53;9.60;;;5.70;54.60;;;;;;21539;6609;66073;-83
2021/12/06 06:36:17;;;;;;;9.45;8.80;;;5.80;54.40;;;;;;21316;6607;299428;-84
2021/12/06 06:38:42;;;;;;;9.87;9.07;;;5.80;54.30;;;;;;21509;6608;69503;-84
2021/12/06 06:41:09;;;;;;;8.95;8.27;;;5.60;55.00;;;;;;21540;6609;66331;-85
2021/12/06 06:43:37;;;;;;;8.77;8.07;;;5.50;54.90;;;;;;21527;6609;68455;-85
2021/12/06 06:46:00;;;;;;;8.60;7.90;;;5.40;55.40;;;;;;21490;6609;66431;-84
2021/12/06 06:48:25;;;;;;;9.57;8.77;;;5.20;55.80;;;;;;21280;6609;300258;-85
2021/12/06 06:50:51;;;;;;;8.90;8.20;;;5.40;56.00;;;;;;21279;6609;333225;-84
2021/12/06 06:53:17;;;;;;;9.13;8.53;;;5.70;55.10;;;;;;21278;6609;292401;-83
2021/12/06 06:55:42;;;;;;;9.37;8.67;;;6.10;54.40;;;;;;21267;6609;303988;-84
2021/12/06 06:58:08;;;;;;;9.20;8.50;;;6.30;53.40;;;;;;21281;6609;300247;-83
2021/12/06 07:00:34;;;;;;;9.88;9.05;;;6.50;53.00;;;;;;21266;6609;299060;-83
2021/12/06 07:02:59;;;;;;;9.23;8.53;;;6.60;52.40;;;;;;21291;6609;299117;-82
2021/12/06 07:05:26;;;;;;;11.67;10.77;;;6.70;52.40;;;;;;21351;6609;269829;-83
2021/12/06 07:07:51;;;;;;;11.17;10.30;;;6.80;51.90;;;;;;21332;6609;298848;-83
2021/12/06 07:10:16;;;;;;;9.77;9.07;;;6.90;51.60;;;;;;21345;6609;298789;-83
2021/12/06 07:12:47;;;;;;;10.53;9.50;;;6.90;51.60;;;;;;21556;6609;66440;-83
2021/12/06 07:15:11;;;;;;;12.30;11.30;;;6.70;52.00;;;;;;21554;6609;66132;-82
2021/12/06 07:17:36;;;;;;;11.97;10.90;;;6.30;52.80;;;;;;21533;6609;70152;-82
2021/12/06 07:20:01;;;;;;;13.32;12.13;;;6.10;53.60;;;;;;21311;6609;297364;-83
2021/12/06 07:22:27;;;;;;;13.13;11.93;;;6.10;53.90;;;;;;21546;6609;66466;-83
2021/12/06 07:24:52;;;;;;;12.43;11.13;;;6.00;53.90;;;;;;21554;6609;65991;-84
2021/12/06 07:27:18;;;;;;;13.30;11.97;;;5.90;54.50;;;;;;21548;6609;75632;-84
2021/12/06 07:29:43;;;;;;;12.27;9.00;;;5.70;54.90;;;;;;21544;6609;66559;-83
2021/12/06 07:32:09;;;;;;;9.98;9.07;;;5.60;55.30;;;;;;21317;6609;272053;-82
2021/12/06 07:34:36;;;;;;;10.30;9.50;;;5.70;55.10;;;;;;21342;6609;302566;-83
2021/12/06 07:37:00;;;;;;;10.50;9.70;;;6.00;54.20;;;;;;21350;6609;273103;-84
2021/12/06 07:39:26;;;;;;;9.10;8.40;;;6.30;53.70;;;;;;21568;6609;66216;-83
2021/12/06 07:41:51;;;;;;;9.13;8.40;;;6.10;54.00;;;;;;21565;6609;67462;-83
2021/12/06 07:44:17;;;;;;;8.50;7.90;;;5.90;54.10;;;;;;21575;6609;66396;-82
2021/12/06 07:46:42;;;;;;;9.33;8.00;;;5.70;54.80;;;;;;21574;6609;66499;-83
2021/12/06 07:49:08;;;;;;;8.90;8.00;;;5.40;55.20;;;;;;21571;6607;68442;-85
2021/12/06 07:51:34;;;;;;;10.18;9.38;;;5.30;55.70;;;;;;21359;6608;301959;-84
2021/12/06 07:54:01;;;;;;;10.23;9.50;;;5.50;56.10;;;;;;21348;6609;270094;-83
2021/12/06 07:56:25;;;;;;;11.35;10.50;;;5.80;55.50;;;;;;21287;6609;312239;-83
2021/12/06 07:58:50;;;;;;;11.95;10.73;;;6.10;55.00;;;;;;21552;6609;66416;-84
2021/12/06 08:01:16;;;;;;;10.35;9.45;;;6.10;54.80;;;;;;21526;6609;66768;-84
2021/12/06 08:03:42;;;;;;;10.13;9.27;;;5.90;55.20;;;;;;21566;6609;66017;-83
2021/12/06 08:06:08;;;;;;;12.07;10.90;;;5.70;55.70;;;;;;21564;6609;72301;-84
2021/12/06 08:08:33;;;;;;;11.40;10.30;;;5.50;56.20;;;;;;21569;6609;66037;-84
2021/12/06 08:10:58;;;;;;;13.48;12.27;;;5.40;56.60;;;;;;21115;6680;272350;-84
2021/12/06 08:13:24;;;;;;;11.76;10.66;;;5.60;56.60;;;;;;21110;6680;333152;-84
2021/12/06 08:15:49;;;;;;;10.03;9.03;;;6.00;55.70;;;;;;21263;6697;66869;-84
2021/12/06 08:18:15;;;;;;;20.70;18.80;;;6.00;55.30;;;;;;21302;6692;70097;-84
2021/12/06 08:20:41;;;;;;;19.70;17.73;;;5.80;55.50;;;;;;21300;6692;66442;-84
2021/12/06 08:23:06;;;;;;;15.13;13.90;;;5.60;56.00;;;;;;21073;6692;308794;-84
2021/12/06 08:25:32;;;;;;;11.73;10.87;;;5.70;56.40;;;;;;21082;6692;272739;-84
2021/12/06 08:27:57;;;;;;;11.00;10.00;;;6.10;55.90;;;;;;21295;6692;70180;-85
2021/12/06 08:30:25;;;;;;;12.25;11.02;;;6.10;55.70;;;;;;21289;6692;66869;-84
2021/12/06 08:32:48;;;;;;;13.90;12.43;;;5.90;56.10;;;;;;21290;6692;71239;-83
2021/12/06 08:35:14;;;;;;;9.27;8.57;;;5.80;56.60;;;;;;21284;6692;66908;-83
2021/12/06 08:37:39;;;;;;;9.67;8.87;;;5.70;56.90;;;;;;21292;6693;66951;-84
2021/12/06 08:40:05;;;;;;;9.57;8.67;;;5.60;57.00;;;;;;21283;6695;66506;-83
2021/12/06 08:42:31;;;;;;;8.93;8.20;;;5.50;57.20;;;;;;21331;6680;66326;-83
2021/12/06 08:44:57;;;;;;;10.52;9.63;;;5.40;57.40;;;;;;21070;6695;294806;-83
2021/12/06 08:47:24;;;;;;;10.73;9.93;;;5.60;57.20;;;;;;21120;6680;301714;-84
2021/12/06 08:49:50;;;;;;;10.03;9.03;;;5.90;56.10;;;;;;21289;6695;66930;-83
2021/12/06 08:52:14;;;;;;;11.02;9.80;;;5.90;55.70;;;;;;21110;6680;300372;-83
2021/12/06 08:54:39;;;;;;;9.93;9.23;;;6.10;55.60;;;;;;21071;6695;327778;-83
2021/12/06 08:57:04;;;;;;;12.17;11.07;;;6.40;55.10;;;;;;21079;6695;282250;-83
2021/12/06 08:59:30;;;;;;;10.20;9.30;;;6.60;54.20;;;;;;21126;6678;332735;-83
2021/12/06 09:01:57;;;;;;;9.03;8.43;;;6.80;53.50;;;;;;21291;6694;66665;-83
2021/12/06 09:04:21;;;;;;;9.85;9.02;;;6.60;53.50;;;;;;21118;6680;276483;-83
2021/12/06 09:06:47;;;;;;;11.13;10.13;;;6.60;53.90;;;;;;21074;6695;278934;-84
2021/12/06 09:09:12;;;;;;;9.10;8.30;;;6.80;53.40;;;;;;21281;6696;66858;-83
2021/12/06 09:11:38;;;;;;;9.27;8.50;;;6.70;53.60;;;;;;21291;6692;72933;-83
2021/12/06 09:14:03;;;;;;;10.50;9.80;;;6.50;54.20;;;;;;21056;6698;330690;-83
2021/12/06 09:16:30;;;;;;;11.45;10.65;;;6.70;53.60;;;;;;21126;6680;275385;-83
2021/12/06 09:18:55;;;;;;;12.23;11.23;;;6.70;53.60;;;;;;21284;6698;70756;-82
2021/12/06 09:21:21;;;;;;;23.20;21.03;;;6.60;53.60;;;;;;21290;6695;68582;-83
2021/12/06 09:23:46;;;;;;;13.30;12.23;;;6.40;54.20;;;;;;21064;6695;330133;-83
2021/12/06 09:26:12;;;;;;;19.83;18.20;;;6.40;54.40;;;;;;21067;6697;300978;-82
2021/12/06 09:28:37;;;;;;;18.70;17.10;;;6.70;54.10;;;;;;21297;6692;67252;-83
2021/12/06 09:31:04;;;;;;;11.48;10.57;;;6.70;54.10;;;;;;21088;6692;300557;-82
2021/12/06 09:33:30;;;;;;;10.00;9.13;;;6.70;54.10;;;;;;21293;6692;66500;-83
2021/12/06 09:35:58;;;;;;;9.32;8.65;;;6.70;54.20;;;;;;21299;6693;66527;-82
2021/12/06 09:38:22;;;;;;;10.63;9.75;;;6.50;54.60;;;;;;21060;6693;293902;-83
2021/12/06 09:40:45;;;;;;;11.93;10.10;;;6.60;54.50;;;;;;21284;6693;66715;-82
2021/12/06 09:43:11;;;;;;;12.63;11.63;;;6.60;54.40;;;;;;21054;6693;324428;-82
2021/12/06 09:45:36;;;;;;;10.70;9.90;;;6.70;54.30;;;;;;21294;6693;66922;-83
2021/12/06 09:48:03;;;;;;;10.65;9.75;;;6.70;54.30;;;;;;21297;6693;67275;-83
2021/12/06 09:50:28;;;;;;;12.63;11.63;;;6.60;54.80;;;;;;21060;6698;302658;-83
2021/12/06 09:52:53;;;;;;;14.90;13.43;;;6.70;54.50;;;;;;21054;6695;301989;-85
2021/12/06 09:55:19;;;;;;;12.07;11.00;;;7.10;53.80;;;;;;21260;6695;66456;-84
2021/12/06 09:57:44;;;;;;;13.27;12.23;;;7.10;53.60;;;;;;21068;6697;301103;-83
2021/12/06 10:00:10;;;;;;;12.80;11.80;;;7.10;53.10;;;;;;21304;6692;70483;-83
2021/12/06 10:02:36;;;;;;;12.97;10.90;;;7.10;53.30;;;;;;21277;6697;89086;-84
2021/12/06 10:05:01;;;;;;;12.23;11.23;;;6.90;53.70;;;;;;21308;6692;66714;-84
2021/12/06 10:07:27;;;;;;;14.77;13.40;;;6.70;54.20;;;;;;21279;6697;66840;-85
2021/12/06 10:09:53;;;;;;;15.13;13.83;;;6.60;54.60;;;;;;21083;6692;300610;-85
2021/12/06 10:12:18;;;;;;;11.90;10.90;;;6.70;54.40;;;;;;21274;6695;70599;-84
2021/12/06 10:14:46;;;;;;;13.27;11.97;;;6.80;54.30;;;;;;21298;6691;66941;-84
2021/12/06 10:17:12;;;;;;;13.23;12.03;;;6.60;54.40;;;;;;21307;6692;67205;-84
2021/12/06 10:19:37;;;;;;;14.52;13.23;;;6.50;54.80;;;;;;21082;6692;275542;-85
2021/12/06 10:22:03;;;;;;;15.43;12.73;;;6.70;54.40;;;;;;21297;6692;66914;-85
2021/12/06 10:24:29;;;;;;;14.00;12.60;;;6.70;54.20;;;;;;21299;6692;67269;-84
2021/12/06 10:27:07;;;;;;;12.37;11.17;;;6.60;54.60;;;;;;21295;6692;67526;-84
2021/12/06 10:29:44;;;;;;;12.67;11.43;;;6.50;55.00;;;;;;21276;6697;66687;-84
2021/12/06 10:32:11;;;;;;;12.57;11.33;;;6.40;55.30;;;;;;21284;6692;66914;-84
2021/12/06 10:34:37;;;;;;;13.67;12.23;;;6.40;55.70;;;;;;21283;6692;66494;-84
2021/12/06 10:37:02;;;;;;;15.93;11.57;;;6.30;55.90;;;;;;21299;6692;68047;-84
2021/12/06 10:39:28;;;;;;;11.88;10.82;;;6.30;56.20;;;;;;21303;6692;73136;-84
2021/12/06 10:41:53;;;;;;;11.73;10.70;;;6.30;56.40;;;;;;21266;6692;66513;-84
2021/12/06 10:44:19;;;;;;;13.98;12.57;;;6.40;56.70;;;;;;21085;6692;310410;-84
2021/12/06 10:46:46;;;;;;;10.90;10.07;;;6.80;55.90;;;;;;21298;6692;66526;-82
2021/12/06 10:49:13;;;;;;;12.40;11.10;;;7.00;55.40;;;;;;21293;6692;66552;-84
2021/12/06 10:51:39;;;;;;;11.43;10.33;;;7.10;55.40;;;;;;21277;6692;66432;-83
2021/12/06 10:54:07;;;;;;;9.77;8.93;;;7.10;55.40;;;;;;21260;6692;66433;-87
2021/12/06 10:56:39;;;;;;;12.87;11.57;;;7.10;55.30;;;;;;21245;6693;66990;-88
2021/12/06 10:58:58;;;;;;;13.73;12.55;;;7.00;55.40;;;;;;20997;6693;295239;-86
2021/12/06 11:01:27;;;;;;;12.07;11.07;;;7.20;54.20;;;;;;21212;6693;66437;-86
2021/12/06 11:03:53;;;;;;;11.40;10.40;;;7.40;54.00;;;;;;21186;6695;67991;-88
2021/12/06 11:06:20;;;;;;;11.93;10.80;;;7.20;54.10;;;;;;21270;6680;66794;-86
2021/12/06 11:08:44;;;;;;;12.48;11.18;;;7.10;54.30;;;;;;21197;6698;73347;-86
2021/12/06 11:11:10;;;;;;;11.68;10.52;;;6.90;54.50;;;;;;21236;6695;70766;-87
2021/12/06 11:13:35;;;;;;;11.43;10.27;;;6.80;54.80;;;;;;21247;6695;67007;-89
2021/12/06 11:16:04;;;;;;;12.23;11.10;;;6.80;55.10;;;;;;21226;6697;66917;-89
2021/12/06 11:18:43;;;;;;;15.95;14.68;;;6.60;55.20;;;;;;21062;6692;284604;-86
2021/12/06 11:21:18;;;;;;;18.37;16.77;;;6.90;54.80;;;;;;21067;6697;276688;-83
2021/12/06 11:23:54;;;;;;;8.03;7.33;;;7.30;53.70;;;;;;21281;6690;66520;-85
2021/12/06 11:26:20;;;;;;;16.10;14.67;;;7.30;53.20;;;;;;21040;6698;301530;-85
2021/12/06 11:28:45;;;;;;;14.05;12.75;;;7.50;54.10;;;;;;21286;6694;68833;-86
2021/12/06 11:31:11;;;;;;;14.87;13.23;;;7.50;54.20;;;;;;21077;6695;301536;-85
2021/12/06 11:33:36;;;;;;;13.83;12.63;;;7.60;53.40;;;;;;21043;6697;289642;-87
2021/12/06 11:36:02;;;;;;;12.03;10.80;;;8.00;52.70;;;;;;21289;6692;68931;-87
2021/12/06 11:38:28;;;;;;;11.30;10.10;;;8.10;52.70;;;;;;21228;6692;67122;-84
2021/12/06 11:40:56;;;;;;;12.55;11.35;;;8.00;52.90;;;;;;21242;6697;70064;-86
2021/12/06 11:43:22;;;;;;;12.03;10.83;;;7.90;54.00;;;;;;21281;6692;66920;-84
2021/12/06 11:45:52;;;;;;;10.77;9.77;;;7.90;53.80;;;;;;21290;6692;66840;-84
2021/12/06 11:48:16;;;;;;;11.13;9.97;;;7.90;54.80;;;;;;21257;6698;67260;-83
2021/12/06 11:50:45;;;;;;;9.98;8.98;;;8.00;54.80;;;;;;21311;6680;66769;-83
2021/12/06 11:53:11;;;;;;;9.03;8.23;;;8.00;54.50;;;;;;21250;6695;66440;-84
2021/12/06 11:55:36;;;;;;;8.60;7.90;;;8.10;54.70;;;;;;21323;6680;67159;-84
2021/12/06 11:58:03;;;;;;;8.18;7.50;;;8.20;54.60;;;;;;21256;6695;66416;-83
2021/12/06 12:00:28;;;;;;;8.80;8.10;;;8.30;54.90;;;;;;21301;6680;66857;-86
2021/12/06 12:02:54;;;;;;;9.17;8.27;;;8.60;52.60;;;;;;21041;6699;331517;-86
2021/12/06 12:05:26;;;;;;;10.77;9.87;;;8.50;52.50;;;;;;21071;6686;277080;-84
2021/12/06 12:08:00;;;;;;;9.00;8.15;;;8.90;50.70;;;;;;21033;6698;330217;-85
2021/12/06 12:10:46;;;;;;;8.63;7.90;;;9.20;50.40;;;;;;21333;6680;72416;-84
2021/12/06 12:13:35;;;;;;;8.10;7.30;;;8.90;51.20;;;;;;21270;6695;66997;-85
2021/12/06 12:16:04;;;;;;;8.30;7.63;;;8.80;51.10;;;;;;20766;6680;301418;-86
2021/12/06 12:18:29;;;;;;;7.20;6.57;;;8.90;50.50;;;;;;21274;6688;67155;-84
2021/12/06 12:20:55;;;;;;;7.50;6.80;;;8.90;50.70;;;;;;21307;6688;66464;-84
2021/12/06 12:23:20;;;;;;;8.00;7.30;;;8.80;51.40;;;;;;21080;6688;300549;-85
2021/12/06 12:25:53;;;;;;;7.27;6.67;;;8.80;50.90;;;;;;21299;6688;66400;-84
2021/12/06 12:28:21;;;;;;;6.33;5.93;;;8.80;51.00;;;;;;21278;6688;66448;-86
2021/12/06 12:30:43;;;;;;;7.40;6.90;;;8.70;51.50;;;;;;21058;6688;291775;-85
2021/12/06 12:33:09;;;;;;;6.15;5.65;;;8.80;51.80;;;;;;21288;6688;67839;-86
2021/12/06 12:35:34;;;;;;;6.20;5.70;;;8.90;51.50;;;;;;21083;6686;300898;-85
2021/12/06 12:38:00;;;;;;;6.62;6.12;;;9.00;50.60;;;;;;21290;6687;71352;-86
2021/12/06 12:40:25;;;;;;;6.00;5.50;;;9.00;50.70;;;;;;21305;6687;66767;-87
2021/12/06 12:42:58;;;;;;;6.80;6.20;;;8.90;51.00;;;;;;20647;6687;333928;-87
2021/12/06 12:45:23;;;;;;;6.50;5.60;;;9.00;50.40;;;;;;21269;6687;75182;-86
2021/12/06 12:47:49;;;;;;;6.50;5.90;;;9.00;50.80;;;;;;21263;6687;66923;-88
2021/12/06 12:50:14;;;;;;;6.10;5.60;;;8.80;51.20;;;;;;21022;6687;302037;-86
2021/12/06 12:52:44;;;;;;;5.70;5.40;;;9.30;50.30;;;;;;21024;6687;277420;-87
2021/12/06 12:55:29;;;;;;;6.00;5.60;;;9.30;50.30;;;;;;21030;6688;301916;-86